Time;durP1;ratioP1;P1;durP2;ratioP2;P2;SDS_P1;SDS_P2;PMS_P1;PMS_P2;Temp;Humidity;BMP_temperature;BMP_pressure;BME280_temperature;BME280_humidity;BME280_pressure;Samples;Min_cycle;Max_cycle;Signal;HPM_P1;HPM_P2
2023/07/30 00:01:10;;;;;;;;;;;22.60;61.10;;;;;;5052230;28;19929;-59
2023/07/30 00:03:37;;;;;;;;;;;22.60;61.10;;;;;;5050767;28;19925;-58
2023/07/30 00:06:04;;;;;;;;;;;22.60;61.20;;;;;;5048072;28;19925;-59
2023/07/30 00:08:31;;;;;;;;;;;22.60;61.20;;;;;;5052000;28;19925;-59
2023/07/30 00:10:57;;;;;;;;;;;22.60;61.20;;;;;;5054482;28;19925;-58
2023/07/30 00:13:24;;;;;;;;;;;22.60;61.20;;;;;;5052279;28;19960;-58
2023/07/30 00:15:51;;;;;;;;;;;22.60;61.20;;;;;;5052298;28;19925;-58
2023/07/30 00:18:19;;;;;;;;;;;22.60;61.20;;;;;;5045224;28;19924;-56
2023/07/30 00:20:46;;;;;;;;;;;22.60;61.30;;;;;;5053684;28;20187;-57
2023/07/30 00:23:13;;;;;;;;;;;22.60;61.20;;;;;;5063398;28;19924;-57
2023/07/30 00:25:39;;;;;;;;;;;22.60;61.30;;;;;;5044754;28;19983;-57
2023/07/30 00:28:06;;;;;;;;;;;22.60;61.30;;;;;;5045407;28;19925;-58
2023/07/30 00:30:33;;;;;;;;;;;22.60;61.30;;;;;;5047523;28;19975;-57
2023/07/30 00:32:59;;;;;;;;;;;22.60;61.30;;;;;;5040797;28;19975;-59
2023/07/30 00:35:28;;;;;;;;;;;22.60;61.30;;;;;;5066483;28;19932;-58
2023/07/30 00:37:54;;;;;;;;;;;22.60;61.30;;;;;;5051853;28;20027;-56
2023/07/30 00:40:21;;;;;;;;;;;22.60;61.30;;;;;;5041969;28;19987;-58
2023/07/30 00:42:48;;;;;;;;;;;22.60;61.30;;;;;;5051415;28;19931;-55
2023/07/30 00:45:15;;;;;;;;;;;22.60;61.30;;;;;;5051951;28;19925;-58
2023/07/30 00:47:41;;;;;;;;;;;22.60;61.30;;;;;;5048511;28;19975;-58
2023/07/30 00:50:08;;;;;;;;;;;22.60;61.30;;;;;;5053055;28;19929;-56
2023/07/30 00:52:37;;;;;;;;;;;22.60;61.30;;;;;;5052632;28;19928;-58
2023/07/30 00:55:03;;;;;;;;;;;22.60;61.30;;;;;;5047918;28;19925;-60
2023/07/30 00:57:30;;;;;;;;;;;22.60;61.40;;;;;;5050987;28;19939;-56
2023/07/30 00:59:57;;;;;;;;;;;22.60;61.30;;;;;;5051783;28;19928;-59
2023/07/30 01:02:24;;;;;;;;;;;22.60;61.40;;;;;;5052503;28;19936;-59
2023/07/30 01:04:51;;;;;;;;;;;22.60;61.40;;;;;;5041801;28;19924;-57
2023/07/30 01:07:18;;;;;;;;;;;22.60;61.40;;;;;;5046018;28;19986;-58
2023/07/30 01:09:46;;;;;;;;;;;22.60;61.40;;;;;;5046321;28;19932;-58
2023/07/30 01:12:13;;;;;;;;;;;22.60;61.30;;;;;;5037110;28;19929;-56
2023/07/30 01:14:40;;;;;;;;;;;22.60;61.40;;;;;;5041064;28;19929;-59
2023/07/30 01:17:07;;;;;;;;;;;22.60;61.40;;;;;;5042648;28;19924;-58
2023/07/30 01:19:34;;;;;;;;;;;22.60;61.40;;;;;;5036011;28;19932;-58
2023/07/30 01:22:02;;;;;;;;;;;22.60;61.40;;;;;;5047525;28;19929;-58
2023/07/30 01:24:28;;;;;;;;;;;22.60;61.40;;;;;;5059752;28;19955;-58
2023/07/30 01:26:57;;;;;;;;;;;22.60;61.30;;;;;;5046052;28;19932;-57
2023/07/30 01:29:26;;;;;;;;;;;22.60;61.30;;;;;;5051325;28;19936;-58
2023/07/30 01:31:53;;;;;;;;;;;22.60;61.30;;;;;;5051625;28;19925;-58
2023/07/30 01:34:20;;;;;;;;;;;22.60;61.30;;;;;;5041332;28;19925;-58
2023/07/30 01:36:46;;;;;;;;;;;22.60;61.30;;;;;;5051408;28;19925;-58
2023/07/30 01:39:16;;;;;;;;;;;22.50;61.30;;;;;;5047361;28;19932;-57
2023/07/30 01:41:43;;;;;;;;;;;22.60;61.30;;;;;;5045274;28;19978;-55
2023/07/30 01:44:10;;;;;;;;;;;22.60;61.30;;;;;;5049583;28;19975;-57
2023/07/30 01:46:37;;;;;;;;;;;22.50;61.10;;;;;;5048528;28;19932;-55
2023/07/30 01:49:03;;;;;;;;;;;22.50;61.10;;;;;;5050686;28;19925;-58
2023/07/30 01:51:30;;;;;;;;;;;22.50;61.10;;;;;;5042218;28;19925;-59
2023/07/30 01:53:57;;;;;;;;;;;22.60;61.20;;;;;;5043698;28;19926;-59
2023/07/30 01:56:25;;;;;;;;;;;22.50;61.10;;;;;;5050586;28;19925;-58
2023/07/30 01:58:52;;;;;;;;;;;22.50;61.10;;;;;;5050562;28;20055;-58
2023/07/30 02:01:19;;;;;;;;;;;22.50;61.10;;;;;;5050479;28;19925;-57
2023/07/30 02:03:46;;;;;;;;;;;22.50;61.10;;;;;;5067228;28;19928;-59
2023/07/30 02:06:12;;;;;;;;;;;22.60;61.20;;;;;;5038396;28;19955;-59
2023/07/30 02:08:39;;;;;;;;;;;22.50;61.10;;;;;;5036629;28;19929;-58
2023/07/30 02:11:06;;;;;;;;;;;22.50;61.10;;;;;;5047135;28;19925;-57
2023/07/30 02:13:34;;;;;;;;;;;22.50;61.10;;;;;;5037620;28;19979;-57
2023/07/30 02:16:01;;;;;;;;;;;22.50;61.10;;;;;;5042635;28;19924;-58
2023/07/30 02:18:28;;;;;;;;;;;22.50;61.10;;;;;;5041340;28;19925;-58
2023/07/30 02:20:54;;;;;;;;;;;22.50;61.10;;;;;;5043013;28;19925;-58
2023/07/30 02:23:21;;;;;;;;;;;22.50;61.10;;;;;;5040236;28;19928;-56
2023/07/30 02:25:48;;;;;;;;;;;22.50;61.00;;;;;;5049643;28;20289;-58
2023/07/30 02:28:15;;;;;;;;;;;22.50;61.00;;;;;;5041844;28;20378;-58
2023/07/30 02:30:43;;;;;;;;;;;22.50;61.00;;;;;;5050437;28;19925;-59
2023/07/30 02:33:10;;;;;;;;;;;22.50;61.00;;;;;;5035208;28;19926;-58
2023/07/30 02:35:36;;;;;;;;;;;22.50;61.00;;;;;;5042740;28;20330;-58
2023/07/30 02:38:03;;;;;;;;;;;22.50;61.00;;;;;;5039859;28;19925;-57
2023/07/30 02:40:30;;;;;;;;;;;22.50;61.00;;;;;;5047593;28;19924;-56
2023/07/30 02:42:57;;;;;;;;;;;22.50;61.00;;;;;;5050709;28;19928;-58
2023/07/30 02:45:24;;;;;;;;;;;22.50;61.00;;;;;;5041582;28;19979;-59
2023/07/30 02:47:52;;;;;;;;;;;22.50;60.90;;;;;;5044563;28;19925;-59
2023/07/30 02:50:19;;;;;;;;;;;22.50;60.90;;;;;;5048745;28;19947;-59
2023/07/30 02:52:45;;;;;;;;;;;22.50;60.80;;;;;;5048627;28;19928;-58
2023/07/30 02:55:12;;;;;;;;;;;22.50;60.80;;;;;;5049354;28;19924;-59
2023/07/30 02:57:39;;;;;;;;;;;22.50;60.80;;;;;;5045824;28;19928;-59
2023/07/30 03:00:06;;;;;;;;;;;22.50;60.80;;;;;;5058176;28;19924;-56
2023/07/30 03:02:33;;;;;;;;;;;22.50;60.80;;;;;;5031219;28;19925;-60
2023/07/30 03:05:01;;;;;;;;;;;22.50;60.70;;;;;;5057440;28;19929;-58
2023/07/30 03:07:28;;;;;;;;;;;22.40;60.60;;;;;;5049064;28;19928;-59
2023/07/30 03:09:55;;;;;;;;;;;22.40;60.60;;;;;;5048934;28;19932;-59
2023/07/30 03:12:22;;;;;;;;;;;22.40;60.50;;;;;;5063786;28;20381;-55
2023/07/30 03:14:48;;;;;;;;;;;22.40;60.50;;;;;;5039109;28;19928;-58
2023/07/30 03:17:15;;;;;;;;;;;22.40;60.50;;;;;;5046507;28;19960;-57
2023/07/30 03:19:42;;;;;;;;;;;22.40;60.50;;;;;;5042433;28;19925;-57
2023/07/30 03:22:10;;;;;;;;;;;22.40;60.50;;;;;;5031394;28;19948;-58
2023/07/30 03:24:37;;;;;;;;;;;22.40;60.40;;;;;;5034986;28;19960;-58
2023/07/30 03:27:04;;;;;;;;;;;22.40;60.30;;;;;;5051692;28;19924;-58
2023/07/30 03:29:31;;;;;;;;;;;22.40;60.30;;;;;;5041288;28;19924;-59
2023/07/30 03:31:57;;;;;;;;;;;22.40;60.30;;;;;;5064951;28;19991;-59
2023/07/30 03:34:24;;;;;;;;;;;22.40;60.30;;;;;;5051515;28;19925;-59
2023/07/30 03:36:51;;;;;;;;;;;22.40;60.30;;;;;;5051548;28;19982;-61
2023/07/30 03:39:19;;;;;;;;;;;22.40;60.30;;;;;;5068422;28;19936;-57
2023/07/30 03:41:46;;;;;;;;;;;22.40;60.20;;;;;;5049265;28;19933;-59
2023/07/30 03:44:13;;;;;;;;;;;22.40;60.20;;;;;;5046217;28;19925;-59
2023/07/30 03:46:39;;;;;;;;;;;22.40;60.20;;;;;;5044650;28;19924;-58
2023/07/30 03:49:06;;;;;;;;;;;22.40;60.20;;;;;;5052725;28;19925;-57
2023/07/30 03:51:33;;;;;;;;;;;22.40;60.10;;;;;;5049422;28;19925;-59
2023/07/30 03:54:00;;;;;;;;;;;22.40;60.10;;;;;;5049614;28;19999;-58
2023/07/30 03:56:28;;;;;;;;;;;22.40;60.00;;;;;;5052443;28;19925;-58
2023/07/30 03:58:55;;;;;;;;;;;22.40;60.00;;;;;;5045532;28;19925;-58
2023/07/30 04:01:22;;;;;;;;;;;22.40;60.00;;;;;;5051862;28;19936;-57
2023/07/30 04:03:48;;;;;;;;;;;22.40;60.00;;;;;;5053814;28;19967;-55
2023/07/30 04:06:15;;;;;;;;;;;22.40;60.00;;;;;;5044053;28;19967;-60
2023/07/30 04:08:42;;;;;;;;;;;22.40;60.00;;;;;;5038061;28;19928;-58
2023/07/30 04:11:09;;;;;;;;;;;22.40;60.00;;;;;;5048307;28;19925;-57
2023/07/30 04:13:37;;;;;;;;;;;22.40;59.90;;;;;;5046234;28;19979;-58
2023/07/30 04:16:04;;;;;;;;;;;22.40;59.90;;;;;;5056510;28;19974;-59
2023/07/30 04:18:31;;;;;;;;;;;22.40;59.90;;;;;;5047730;28;20358;-58
2023/07/30 04:20:58;;;;;;;;;;;22.40;59.90;;;;;;5047114;28;19925;-59
2023/07/30 04:23:25;;;;;;;;;;;22.40;59.90;;;;;;5042408;28;19948;-57
2023/07/30 04:25:51;;;;;;;;;;;22.40;59.80;;;;;;5051472;28;19925;-59
2023/07/30 04:28:18;;;;;;;;;;;22.40;59.80;;;;;;5049106;28;19933;-59
2023/07/30 04:30:47;;;;;;;;;;;22.30;59.80;;;;;;5040569;28;19979;-59
2023/07/30 04:33:14;;;;;;;;;;;22.40;59.80;;;;;;5040209;28;19932;-59
2023/07/30 04:35:41;;;;;;;;;;;22.40;59.80;;;;;;5033210;28;20327;-59
2023/07/30 04:38:08;;;;;;;;;;;22.30;59.70;;;;;;5048667;28;19932;-59
2023/07/30 04:40:34;;;;;;;;;;;22.30;59.70;;;;;;5044037;28;19975;-59
2023/07/30 04:43:01;;;;;;;;;;;22.40;59.80;;;;;;5052069;28;19925;-59
2023/07/30 04:45:28;;;;;;;;;;;22.30;59.70;;;;;;5035872;28;19928;-58
2023/07/30 04:47:57;;;;;;;;;;;22.30;59.60;;;;;;5056354;28;19933;-56
2023/07/30 04:50:23;;;;;;;;;;;22.30;59.60;;;;;;5051994;28;19925;-59
2023/07/30 04:52:50;;;;;;;;;;;22.40;59.70;;;;;;5050565;28;19987;-59
2023/07/30 04:55:17;;;;;;;;;;;22.30;59.60;;;;;;5049473;28;19990;-58
2023/07/30 04:57:44;;;;;;;;;;;22.30;59.60;;;;;;5040147;28;19932;-59
2023/07/30 05:00:11;;;;;;;;;;;22.30;59.60;;;;;;5049378;28;19928;-59
2023/07/30 05:02:38;;;;;;;;;;;22.30;59.60;;;;;;5051736;28;20015;-59
2023/07/30 05:05:07;;;;;;;;;;;22.30;59.60;;;;;;5043889;28;19924;-58
2023/07/30 05:07:34;;;;;;;;;;;22.30;59.60;;;;;;5039018;28;20299;-58
2023/07/30 05:10:01;;;;;;;;;;;22.30;59.60;;;;;;5040456;28;19947;-59
2023/07/30 05:12:27;;;;;;;;;;;22.30;59.50;;;;;;5043812;28;19982;-58
2023/07/30 05:14:54;;;;;;;;;;;22.30;59.60;;;;;;5050414;28;19948;-59
2023/07/30 05:17:21;;;;;;;;;;;22.30;59.60;;;;;;5043985;28;19929;-57
2023/07/30 05:19:48;;;;;;;;;;;22.30;59.60;;;;;;5050406;28;19925;-59
2023/07/30 05:22:16;;;;;;;;;;;22.30;59.50;;;;;;5033319;28;19925;-59
2023/07/30 05:24:43;;;;;;;;;;;22.30;59.50;;;;;;5050130;28;19924;-58
2023/07/30 05:27:10;;;;;;;;;;;22.30;59.50;;;;;;5056915;28;19974;-59
2023/07/30 05:29:37;;;;;;;;;;;22.30;59.50;;;;;;5049367;28;19925;-59
2023/07/30 05:32:04;;;;;;;;;;;22.30;59.50;;;;;;5050753;28;19928;-58
2023/07/30 05:34:30;;;;;;;;;;;22.30;59.50;;;;;;5051081;28;19929;-58
2023/07/30 05:36:57;;;;;;;;;;;22.30;59.50;;;;;;5051234;28;19928;-58
2023/07/30 05:39:26;;;;;;;;;;;22.30;59.50;;;;;;5050339;28;19941;-58
2023/07/30 05:41:52;;;;;;;;;;;22.30;59.50;;;;;;5049004;28;20404;-57
2023/07/30 05:44:19;;;;;;;;;;;22.30;59.50;;;;;;5050332;28;19968;-59
2023/07/30 05:46:46;;;;;;;;;;;22.30;59.50;;;;;;5050985;28;19968;-58
2023/07/30 05:49:14;;;;;;;;;;;22.30;59.50;;;;;;5050956;28;19925;-59
2023/07/30 05:51:41;;;;;;;;;;;22.30;59.50;;;;;;5050573;28;19964;-58
2023/07/30 05:54:08;;;;;;;;;;;22.30;59.50;;;;;;5047558;28;19931;-56
2023/07/30 05:56:36;;;;;;;;;;;22.30;59.50;;;;;;5072474;28;19975;-59
2023/07/30 05:59:03;;;;;;;;;;;22.30;59.50;;;;;;5047878;28;19925;-59
2023/07/30 06:01:30;;;;;;;;;;;22.30;59.50;;;;;;5039048;28;19929;-56
2023/07/30 06:03:56;;;;;;;;;;;22.30;59.50;;;;;;5048372;28;19971;-59
2023/07/30 06:06:27;;;;;;;;;;;22.30;59.50;;;;;;5047875;28;19924;-59
2023/07/30 06:08:54;;;;;;;;;;;22.30;59.50;;;;;;5044980;28;19936;-59
2023/07/30 06:11:20;;;;;;;;;;;22.30;59.60;;;;;;5046340;28;19933;-57
2023/07/30 06:13:49;;;;;;;;;;;22.30;59.60;;;;;;5048201;28;19932;-60
2023/07/30 06:16:15;;;;;;;;;;;22.30;59.60;;;;;;5041212;28;20015;-57
2023/07/30 06:18:42;;;;;;;;;;;22.30;59.60;;;;;;5044620;28;19925;-58
2023/07/30 06:21:09;;;;;;;;;;;22.30;59.60;;;;;;5046367;28;20023;-58
2023/07/30 06:23:36;;;;;;;;;;;22.30;59.60;;;;;;5043905;28;20370;-57
2023/07/30 06:26:02;;;;;;;;;;;22.30;59.60;;;;;;5039840;28;19960;-57
2023/07/30 06:28:29;;;;;;;;;;;22.30;59.60;;;;;;5042159;28;20010;-58
2023/07/30 06:30:57;;;;;;;;;;;22.30;59.60;;;;;;5044118;28;19925;-59
2023/07/30 06:33:24;;;;;;;;;;;22.30;59.70;;;;;;5042328;28;19955;-59
2023/07/30 06:35:51;;;;;;;;;;;22.30;59.70;;;;;;5042242;28;19929;-58
2023/07/30 06:38:18;;;;;;;;;;;22.30;59.70;;;;;;5037000;28;19925;-59
2023/07/30 06:40:45;;;;;;;;;;;22.30;59.70;;;;;;5039101;28;19961;-59
2023/07/30 06:43:11;;;;;;;;;;;22.30;59.70;;;;;;5047106;28;19932;-58
2023/07/30 06:45:38;;;;;;;;;;;22.30;59.80;;;;;;5047121;28;19982;-59
2023/07/30 06:48:07;;;;;;;;;;;22.30;59.80;;;;;;5047043;28;19925;-59
2023/07/30 06:50:34;;;;;;;;;;;22.30;59.80;;;;;;5036984;28;19933;-58
2023/07/30 06:53:00;;;;;;;;;;;22.30;59.80;;;;;;5059020;28;19932;-58
2023/07/30 06:55:27;;;;;;;;;;;22.30;59.80;;;;;;5042693;28;19920;-57
2023/07/30 06:57:54;;;;;;;;;;;22.30;59.80;;;;;;5049618;28;19932;-57
2023/07/30 07:00:22;;;;;;;;;;;22.30;59.90;;;;;;5040570;28;19966;-56
2023/07/30 07:02:49;;;;;;;;;;;22.30;59.80;;;;;;5059819;28;19929;-58
2023/07/30 07:05:17;;;;;;;;;;;22.40;60.00;;;;;;5048907;28;20379;-57
2023/07/30 07:07:44;;;;;;;;;;;22.30;59.90;;;;;;5050712;28;19931;-58
2023/07/30 07:10:11;;;;;;;;;;;22.30;59.90;;;;;;5070995;28;19948;-56
2023/07/30 07:12:38;;;;;;;;;;;22.30;59.90;;;;;;5053535;28;19966;-58
2023/07/30 07:15:05;;;;;;;;;;;22.30;59.90;;;;;;5053843;28;19925;-58
2023/07/30 07:17:32;;;;;;;;;;;22.30;59.90;;;;;;5049124;28;19925;-58
2023/07/30 07:19:59;;;;;;;;;;;22.30;60.00;;;;;;5049785;28;19925;-56
2023/07/30 07:22:27;;;;;;;;;;;22.30;60.00;;;;;;5054132;28;20000;-56
2023/07/30 07:24:53;;;;;;;;;;;22.30;60.00;;;;;;5038031;28;19932;-58
2023/07/30 07:27:21;;;;;;;;;;;22.30;60.00;;;;;;5056903;28;19955;-57
2023/07/30 07:29:47;;;;;;;;;;;22.30;60.00;;;;;;5038174;28;19979;-57
2023/07/30 07:32:14;;;;;;;;;;;22.30;60.00;;;;;;5035803;28;19925;-58
2023/07/30 07:34:41;;;;;;;;;;;22.30;60.00;;;;;;5051854;28;19937;-59
2023/07/30 07:37:08;;;;;;;;;;;22.30;60.10;;;;;;5045016;28;19924;-58
2023/07/30 07:39:36;;;;;;;;;;;22.30;60.10;;;;;;5050534;28;19925;-59
2023/07/30 07:42:03;;;;;;;;;;;22.30;60.10;;;;;;5045941;28;19933;-58
2023/07/30 07:44:30;;;;;;;;;;;22.30;60.10;;;;;;5051466;28;19924;-58
2023/07/30 07:46:56;;;;;;;;;;;22.30;60.10;;;;;;5053427;28;19929;-59
2023/07/30 07:49:23;;;;;;;;;;;22.40;60.20;;;;;;5048463;28;20148;-59
2023/07/30 07:51:50;;;;;;;;;;;22.30;60.10;;;;;;5051080;28;19925;-59
2023/07/30 07:54:16;;;;;;;;;;;22.30;60.10;;;;;;5056438;28;19928;-59
2023/07/30 07:56:45;;;;;;;;;;;22.40;60.20;;;;;;5051425;28;19920;-59
2023/07/30 07:59:11;;;;;;;;;;;22.30;60.10;;;;;;5061634;28;19928;-58
2023/07/30 08:01:38;;;;;;;;;;;22.30;60.10;;;;;;5040429;28;19971;-59
2023/07/30 08:04:05;;;;;;;;;;;22.40;60.30;;;;;;5051006;28;19925;-57
2023/07/30 08:06:32;;;;;;;;;;;22.40;60.30;;;;;;5056164;28;19929;-59
2023/07/30 08:08:59;;;;;;;;;;;22.40;60.30;;;;;;5048810;28;19924;-60
2023/07/30 08:11:25;;;;;;;;;;;22.40;60.40;;;;;;5071062;28;19948;-59
2023/07/30 08:13:54;;;;;;;;;;;22.40;60.80;;;;;;5051368;28;19925;-60
2023/07/30 08:16:21;;;;;;;;;;;22.40;60.40;;;;;;5043588;28;19928;-59
2023/07/30 08:18:48;;;;;;;;;;;22.40;60.50;;;;;;5053067;28;19925;-60
2023/07/30 08:21:17;;;;;;;;;;;22.40;60.50;;;;;;5043417;28;20332;-58
2023/07/30 08:23:44;;;;;;;;;;;22.40;60.50;;;;;;5051556;28;19940;-60
2023/07/30 08:26:10;;;;;;;;;;;22.40;60.50;;;;;;5051584;28;19925;-60
2023/07/30 08:28:37;;;;;;;;;;;22.40;60.50;;;;;;5050507;28;19925;-59
2023/07/30 08:31:05;;;;;;;;;;;22.40;60.50;;;;;;5049895;28;19925;-59
2023/07/30 08:33:32;;;;;;;;;;;22.40;60.50;;;;;;5066137;28;19928;-59
2023/07/30 08:35:59;;;;;;;;;;;22.40;60.50;;;;;;5044259;28;19924;-59
2023/07/30 08:38:26;;;;;;;;;;;22.40;60.50;;;;;;5051297;28;19925;-58
2023/07/30 08:40:53;;;;;;;;;;;22.40;60.50;;;;;;5045581;28;19933;-59
2023/07/30 08:43:19;;;;;;;;;;;22.40;60.50;;;;;;5045060;28;19925;-59
2023/07/30 08:45:46;;;;;;;;;;;22.40;60.50;;;;;;5050693;28;19967;-58
2023/07/30 08:48:14;;;;;;;;;;;22.40;60.40;;;;;;5049827;28;19933;-59
2023/07/30 08:50:41;;;;;;;;;;;22.40;60.40;;;;;;5044280;28;19932;-59
2023/07/30 08:53:08;;;;;;;;;;;22.40;60.40;;;;;;5052410;28;19928;-59
2023/07/30 08:55:35;;;;;;;;;;;22.40;60.50;;;;;;5043461;28;19931;-59
2023/07/30 08:58:02;;;;;;;;;;;22.50;60.60;;;;;;5045629;28;20287;-55
2023/07/30 09:00:30;;;;;;;;;;;22.40;60.30;;;;;;5049955;28;19928;-58
2023/07/30 09:02:57;;;;;;;;;;;22.50;60.30;;;;;;5050828;28;19925;-59
2023/07/30 09:05:28;;;;;;;;;;;22.40;60.00;;;;;;5050188;28;19947;-55
2023/07/30 09:07:54;;;;;;;;;;;22.40;59.90;;;;;;5066238;28;19928;-59
2023/07/30 09:10:21;;;;;;;;;;;22.40;59.90;;;;;;5047758;28;20374;-60
2023/07/30 09:12:52;;;;;;;;;;;22.40;59.90;;;;;;5048299;28;19924;-60
2023/07/30 09:15:19;;;;;;;;;;;22.40;59.90;;;;;;5050852;28;19932;-59
2023/07/30 09:17:46;;;;;;;;;;;22.40;59.90;;;;;;5051700;28;19929;-60
2023/07/30 09:20:13;;;;;;;;;;;22.40;59.90;;;;;;5040488;28;19929;-60
2023/07/30 09:22:41;;;;;;;;;;;22.40;60.00;;;;;;5046918;28;19924;-60
2023/07/30 09:25:08;;;;;;;;;;;22.40;60.00;;;;;;5042066;28;19963;-59
2023/07/30 09:27:35;;;;;;;;;;;22.40;60.00;;;;;;5050928;28;19979;-59
2023/07/30 09:30:02;;;;;;;;;;;22.40;60.00;;;;;;5049691;28;19924;-60
2023/07/30 09:32:29;;;;;;;;;;;22.40;60.00;;;;;;5043110;28;19928;-60
2023/07/30 09:34:56;;;;;;;;;;;22.40;60.00;;;;;;5046865;28;19968;-60
2023/07/30 09:37:23;;;;;;;;;;;22.40;60.00;;;;;;5041393;28;19991;-58
2023/07/30 09:39:51;;;;;;;;;;;22.40;60.00;;;;;;5039321;28;20401;-60
2023/07/30 09:42:17;;;;;;;;;;;22.40;60.00;;;;;;5049559;28;19925;-59
2023/07/30 09:44:44;;;;;;;;;;;22.40;60.00;;;;;;5047694;28;19959;-60
2023/07/30 09:47:11;;;;;;;;;;;22.40;60.00;;;;;;5021264;28;19926;-60
2023/07/30 09:49:38;;;;;;;;;;;22.40;60.00;;;;;;5039189;28;20371;-60
2023/07/30 09:52:05;;;;;;;;;;;22.50;60.00;;;;;;5049335;28;20357;-60
2023/07/30 09:54:32;;;;;;;;;;;22.40;59.90;;;;;;5049672;28;19958;-59
2023/07/30 09:57:00;;;;;;;;;;;22.50;60.00;;;;;;5050387;28;19924;-58
2023/07/30 09:59:28;;;;;;;;;;;22.50;60.00;;;;;;5040096;28;19929;-60
2023/07/30 10:01:55;;;;;;;;;;;22.50;60.10;;;;;;5048043;28;19932;-60
2023/07/30 10:04:22;;;;;;;;;;;22.50;60.00;;;;;;5042562;28;19976;-59
2023/07/30 10:06:50;;;;;;;;;;;22.50;60.10;;;;;;5041667;28;19932;-59
2023/07/30 10:09:17;;;;;;;;;;;22.50;60.00;;;;;;5041873;28;20003;-60
2023/07/30 10:11:43;;;;;;;;;;;22.50;60.00;;;;;;5046676;28;20187;-60
2023/07/30 10:14:11;;;;;;;;;;;22.50;60.00;;;;;;5048657;28;19925;-60
2023/07/30 10:16:38;;;;;;;;;;;22.50;60.00;;;;;;5036591;28;19929;-59
2023/07/30 10:19:05;;;;;;;;;;;22.50;60.00;;;;;;5035682;28;19933;-59
2023/07/30 10:21:33;;;;;;;;;;;22.50;60.00;;;;;;5041124;28;20038;-59
2023/07/30 10:24:00;;;;;;;;;;;22.50;60.00;;;;;;5064138;28;20006;-59
2023/07/30 10:26:27;;;;;;;;;;;22.50;60.10;;;;;;5062105;28;19925;-58
2023/07/30 10:29:03;;;;;;;;;;;22.50;60.00;;;;;;5036445;28;19925;-65
2023/07/30 10:31:40;;;;;;;;;;;22.50;59.90;;;;;;5036813;28;19932;-64
2023/07/30 10:34:07;;;;;;;;;;;22.50;59.60;;;;;;5033667;28;19929;-66
2023/07/30 10:36:35;;;;;;;;;;;22.50;59.30;;;;;;5037988;28;19932;-63
2023/07/30 10:39:02;;;;;;;;;;;22.50;59.10;;;;;;5055496;28;19952;-64
2023/07/30 10:41:29;;;;;;;;;;;22.50;59.00;;;;;;5060465;28;19932;-59
2023/07/30 10:43:56;;;;;;;;;;;22.50;58.90;;;;;;5043685;28;19925;-66
2023/07/30 10:46:23;;;;;;;;;;;22.50;58.80;;;;;;5061663;28;19929;-68
2023/07/30 10:48:51;;;;;;;;;;;22.50;58.70;;;;;;5053730;28;19924;-65
2023/07/30 10:51:19;;;;;;;;;;;22.50;58.50;;;;;;5047163;28;19929;-67
2023/07/30 10:53:45;;;;;;;;;;;22.50;58.30;;;;;;5044612;28;19925;-65
2023/07/30 10:56:12;;;;;;;;;;;22.50;58.20;;;;;;5068334;28;19929;-73
2023/07/30 10:58:39;;;;;;;;;;;22.50;58.20;;;;;;5048646;28;19924;-70
2023/07/30 11:01:06;;;;;;;;;;;22.50;58.20;;;;;;5054819;28;19929;-69
2023/07/30 11:03:33;;;;;;;;;;;22.40;58.20;;;;;;5043119;28;19987;-65
2023/07/30 11:06:01;;;;;;;;;;;22.50;58.00;;;;;;5051498;28;19986;-66
2023/07/30 11:08:34;;;;;;;;;;;22.40;57.40;;;;;;5042284;28;19979;-67
2023/07/30 11:11:02;;;;;;;;;;;22.40;57.40;;;;;;5042384;28;19925;-67
2023/07/30 11:13:28;;;;;;;;;;;22.40;57.30;;;;;;5065809;28;19925;-70
2023/07/30 11:15:55;;;;;;;;;;;22.40;57.40;;;;;;5043956;28;19928;-67
2023/07/30 11:18:22;;;;;;;;;;;22.30;57.40;;;;;;5066202;28;19940;-65
2023/07/30 11:20:50;;;;;;;;;;;22.40;57.70;;;;;;5048757;28;19932;-66
2023/07/30 11:23:22;;;;;;;;;;;22.30;57.70;;;;;;5048463;28;19975;-66
2023/07/30 11:25:49;;;;;;;;;;;22.30;58.40;;;;;;5049420;28;19929;-72
2023/07/30 11:28:27;;;;;;;;;;;22.40;58.00;;;;;;5051810;28;19977;-67
2023/07/30 11:30:54;;;;;;;;;;;22.40;58.00;;;;;;5046409;28;19925;-67
2023/07/30 11:33:21;;;;;;;;;;;22.40;58.10;;;;;;5052525;28;19936;-66
2023/07/30 11:35:48;;;;;;;;;;;22.40;58.10;;;;;;5046646;28;19940;-65
2023/07/30 11:38:14;;;;;;;;;;;22.40;58.10;;;;;;5051135;28;19933;-67
2023/07/30 11:40:43;;;;;;;;;;;22.40;58.10;;;;;;5048324;28;19925;-68
2023/07/30 11:43:10;;;;;;;;;;;22.40;58.00;;;;;;5045568;28;19924;-67
2023/07/30 11:45:37;;;;;;;;;;;22.40;58.00;;;;;;5047305;28;19960;-68
2023/07/30 11:48:08;;;;;;;;;;;22.40;58.00;;;;;;5043464;28;19975;-69
2023/07/30 11:50:43;;;;;;;;;;;22.40;57.70;;;;;;5047036;28;19932;-67
2023/07/30 11:53:10;;;;;;;;;;;22.50;57.80;;;;;;5049842;28;20283;-65
2023/07/30 11:55:40;;;;;;;;;;;22.40;57.90;;;;;;5038521;28;19929;-66
2023/07/30 11:58:09;;;;;;;;;;;22.40;57.90;;;;;;5045792;28;19960;-65
2023/07/30 12:00:36;;;;;;;;;;;22.50;57.90;;;;;;5049118;28;19983;-64
2023/07/30 12:03:03;;;;;;;;;;;22.50;57.90;;;;;;5063917;28;19944;-64
2023/07/30 12:05:33;;;;;;;;;;;22.50;57.80;;;;;;5041064;28;19953;-70
2023/07/30 12:08:02;;;;;;;;;;;22.50;57.70;;;;;;5041613;28;20035;-68
2023/07/30 12:10:29;;;;;;;;;;;22.50;57.70;;;;;;5059952;28;19925;-66
2023/07/30 12:12:56;;;;;;;;;;;22.50;57.60;;;;;;5042505;28;19958;-73
2023/07/30 12:15:24;;;;;;;;;;;22.50;57.40;;;;;;5036423;28;19940;-68
2023/07/30 12:17:51;;;;;;;;;;;22.50;57.50;;;;;;5043948;28;19937;-69
2023/07/30 12:20:18;;;;;;;;;;;22.50;57.40;;;;;;5047590;28;19931;-69
2023/07/30 12:22:45;;;;;;;;;;;22.50;57.30;;;;;;5050000;28;19925;-67
2023/07/30 12:25:11;;;;;;;;;;;22.50;57.30;;;;;;5043519;28;19955;-69
2023/07/30 12:27:38;;;;;;;;;;;22.50;57.30;;;;;;5051580;28;19924;-71
2023/07/30 12:30:06;;;;;;;;;;;22.60;57.40;;;;;;5059736;28;19929;-70
2023/07/30 12:32:34;;;;;;;;;;;22.60;57.20;;;;;;5046049;28;19925;-67
2023/07/30 12:35:00;;;;;;;;;;;22.60;57.20;;;;;;5049253;28;19925;-66
2023/07/30 12:37:27;;;;;;;;;;;22.60;57.00;;;;;;5066846;28;19924;-67
2023/07/30 12:39:54;;;;;;;;;;;22.60;57.00;;;;;;5051720;28;20259;-67
2023/07/30 12:42:21;;;;;;;;;;;22.60;57.00;;;;;;5063444;28;19925;-65
2023/07/30 12:44:47;;;;;;;;;;;22.60;56.80;;;;;;5048851;28;19936;-68
2023/07/30 12:47:14;;;;;;;;;;;22.60;56.50;;;;;;5048153;28;19925;-70
2023/07/30 12:49:45;;;;;;;;;;;22.60;56.60;;;;;;5057882;28;19943;-66
2023/07/30 12:52:12;;;;;;;;;;;22.60;56.40;;;;;;5040778;28;19925;-68
2023/07/30 12:54:39;;;;;;;;;;;22.60;56.20;;;;;;5050530;28;19924;-69
2023/07/30 12:57:06;;;;;;;;;;;22.60;56.10;;;;;;5050817;28;19925;-68
2023/07/30 12:59:33;;;;;;;;;;;22.60;55.90;;;;;;5035743;28;19925;-69
2023/07/30 13:01:59;;;;;;;;;;;22.70;56.00;;;;;;5041080;28;19936;-70
2023/07/30 13:04:27;;;;;;;;;;;22.60;56.00;;;;;;5040995;28;19980;-69
2023/07/30 13:06:55;;;;;;;;;;;22.60;55.40;;;;;;5036001;28;19925;-69
2023/07/30 13:09:22;;;;;;;;;;;22.60;55.30;;;;;;5035412;28;19933;-68
2023/07/30 13:11:49;;;;;;;;;;;22.60;55.10;;;;;;5044706;28;20285;-68
2023/07/30 13:14:16;;;;;;;;;;;22.60;54.90;;;;;;5061897;28;19933;-61
2023/07/30 13:16:42;;;;;;;;;;;22.60;55.10;;;;;;5042226;28;19947;-63
2023/07/30 13:19:09;;;;;;;;;;;22.60;55.20;;;;;;5043344;28;19925;-62
2023/07/30 13:21:36;;;;;;;;;;;22.60;55.40;;;;;;5047047;28;19929;-63
2023/07/30 13:24:04;;;;;;;;;;;22.60;55.70;;;;;;5046830;28;19956;-64
2023/07/30 13:26:31;;;;;;;;;;;22.60;55.90;;;;;;5040204;28;19921;-58
2023/07/30 13:28:58;;;;;;;;;;;22.60;56.10;;;;;;5065222;28;19931;-63
2023/07/30 13:31:25;;;;;;;;;;;22.60;56.20;;;;;;5045150;28;19925;-62
2023/07/30 13:33:52;;;;;;;;;;;22.60;56.40;;;;;;5040281;28;19933;-62
2023/07/30 13:36:19;;;;;;;;;;;22.60;56.40;;;;;;5042242;28;19928;-63
2023/07/30 13:38:45;;;;;;;;;;;22.60;56.60;;;;;;5051164;28;19940;-57
2023/07/30 13:41:14;;;;;;;;;;;22.60;56.60;;;;;;5036617;28;19975;-63
2023/07/30 13:43:40;;;;;;;;;;;22.70;56.80;;;;;;5043495;28;20289;-63
2023/07/30 13:46:07;;;;;;;;;;;22.70;56.90;;;;;;5049527;28;20149;-60
2023/07/30 13:48:34;;;;;;;;;;;22.70;57.00;;;;;;5046621;28;19933;-62
2023/07/30 13:51:01;;;;;;;;;;;22.70;57.00;;;;;;5049172;28;19925;-60
2023/07/30 13:53:27;;;;;;;;;;;22.70;57.00;;;;;;5047108;28;19932;-59
2023/07/30 13:55:54;;;;;;;;;;;22.70;57.10;;;;;;5035567;28;19925;-59
2023/07/30 13:58:25;;;;;;;;;;;22.70;57.10;;;;;;5041161;28;19931;-59
2023/07/30 14:00:54;;;;;;;;;;;22.70;57.20;;;;;;5048437;28;19928;-61
2023/07/30 14:03:23;;;;;;;;;;;22.70;57.20;;;;;;5045220;28;19925;-55
2023/07/30 14:05:50;;;;;;;;;;;22.70;57.30;;;;;;5044442;28;20333;-60
2023/07/30 14:08:16;;;;;;;;;;;22.70;57.30;;;;;;5038852;28;19935;-58
2023/07/30 14:10:43;;;;;;;;;;;22.70;57.30;;;;;;5031886;28;19925;-61
2023/07/30 14:13:10;;;;;;;;;;;22.70;57.40;;;;;;5046367;28;20318;-60
2023/07/30 14:15:39;;;;;;;;;;;22.70;57.40;;;;;;5035110;28;19929;-61